createdAt,value
2023-02-17T00:01:27.192Z,3.79
2023-02-17T00:03:54.157Z,3.79
2023-02-17T00:06:22.891Z,3.78
2023-02-17T00:08:49.731Z,3.78
2023-02-17T00:11:17.681Z,3.78
2023-02-17T00:13:45.066Z,3.79
2023-02-17T00:16:18.004Z,3.79
2023-02-17T00:18:45.219Z,3.78
2023-02-17T00:21:16.618Z,3.78
2023-02-17T00:23:44.465Z,3.76
2023-02-17T00:26:11.432Z,3.76
2023-02-17T00:28:38.625Z,3.75
2023-02-17T00:31:18.237Z,3.75
2023-02-17T00:33:47.560Z,3.73
2023-02-17T00:36:19.115Z,3.73
2023-02-17T00:38:49.594Z,3.73
2023-02-17T00:41:17.870Z,3.71
2023-02-17T00:43:45.566Z,3.70
2023-02-17T00:46:12.660Z,3.69
2023-02-17T00:48:39.590Z,3.65
2023-02-17T00:51:06.712Z,3.63
2023-02-17T00:53:35.187Z,3.59
2023-02-17T00:56:02.356Z,3.56
2023-02-17T00:58:31.751Z,3.54
2023-02-17T01:00:58.643Z,3.54
2023-02-17T01:03:26.748Z,3.52
2023-02-17T01:05:54.471Z,3.52
2023-02-17T01:08:22.557Z,3.51
2023-02-17T01:48:22.070Z,3.37
2023-02-17T01:51:02.613Z,3.33
2023-02-17T01:53:47.025Z,3.33
2023-02-17T01:56:15.749Z,3.32
2023-02-17T01:58:48.525Z,3.32
2023-02-17T02:01:20.041Z,3.32
2023-02-17T02:03:51.471Z,3.32
2023-02-17T02:06:21.766Z,3.31
2023-02-17T02:08:53.197Z,3.31
2023-02-17T02:11:23.561Z,3.28
2023-02-17T02:13:50.634Z,3.27
2023-02-17T02:16:26.992Z,3.24
2023-02-17T02:19:26.869Z,3.25
2023-02-17T02:22:15.240Z,3.24
2023-02-17T02:24:50.749Z,3.25
2023-02-17T02:27:40.956Z,3.25
2023-02-17T02:30:11.115Z,3.26
2023-02-17T02:32:45.411Z,3.27
2023-02-17T02:35:22.913Z,3.29
2023-02-17T02:37:59.632Z,3.32
2023-02-17T02:40:32.630Z,3.33
2023-02-17T02:43:01.560Z,3.33
2023-02-17T02:45:28.517Z,3.34
2023-02-17T02:47:57.414Z,3.34
2023-02-17T02:50:43.411Z,3.34
2023-02-17T02:53:47.921Z,3.32
2023-02-17T02:56:28.657Z,3.33
2023-02-17T02:59:12.221Z,3.33
2023-02-17T03:01:44.736Z,3.35
2023-02-17T03:04:43.812Z,3.36
2023-02-17T03:07:20.510Z,3.34
2023-02-17T03:09:53.184Z,3.35
2023-02-17T03:13:12.748Z,3.37
2023-02-17T03:15:39.778Z,3.40
2023-02-17T03:18:06.301Z,3.41
2023-02-17T03:20:50.364Z,3.42
2023-02-17T03:23:18.552Z,3.45
2023-02-17T03:25:46.973Z,3.47
2023-02-17T03:28:16.206Z,3.49
2023-02-17T03:30:42.988Z,3.51
2023-02-17T03:33:09.475Z,3.52
2023-02-17T03:35:36.061Z,3.52
2023-02-17T03:38:03.414Z,3.53
2023-02-17T03:40:32.068Z,3.55
2023-02-17T03:42:58.601Z,3.56
2023-02-17T03:45:25.311Z,3.55
2023-02-17T03:47:54.376Z,3.56
2023-02-17T03:50:21.087Z,3.56
2023-02-17T03:52:47.530Z,3.56
2023-02-17T03:55:14.257Z,3.56
2023-02-17T03:57:40.990Z,3.56
2023-02-17T04:00:08.874Z,3.55
2023-02-17T04:02:43.986Z,3.54
2023-02-17T04:05:13.634Z,3.55
2023-02-17T04:07:40.493Z,3.57
2023-02-17T04:10:09.418Z,3.58
2023-02-17T04:12:36.401Z,3.60
2023-02-17T04:15:03.313Z,3.60
2023-02-17T04:17:33.112Z,3.61
2023-02-17T04:20:03.010Z,3.61
2023-02-17T04:22:29.666Z,3.62
2023-02-17T04:24:56.390Z,3.62
2023-02-17T04:27:22.910Z,3.62
2023-02-17T04:29:51.079Z,3.61
2023-02-17T04:32:17.588Z,3.62
2023-02-17T04:34:44.055Z,3.64
2023-02-17T04:37:10.627Z,3.65
2023-02-17T04:39:37.185Z,3.65
2023-02-17T04:42:06.368Z,3.64
2023-02-17T04:44:32.927Z,3.65
2023-02-17T04:47:01.726Z,3.65
2023-02-17T04:49:28.217Z,3.65
2023-02-17T04:51:54.914Z,3.66
2023-02-17T04:54:22.265Z,3.66
2023-02-17T04:56:48.806Z,3.65
2023-02-17T04:59:15.495Z,3.63
2023-02-17T05:01:44.585Z,3.63
2023-02-17T05:04:11.206Z,3.63
2023-02-17T05:06:37.695Z,3.65
2023-02-17T05:09:04.305Z,3.65
2023-02-17T05:11:33.199Z,3.65
2023-02-17T05:13:59.769Z,3.65
2023-02-17T05:16:28.892Z,3.64
2023-02-17T05:18:56.086Z,3.63
2023-02-17T05:21:22.788Z,3.63
2023-02-17T05:23:49.467Z,3.63
2023-02-17T05:26:16.230Z,3.62
2023-02-17T05:28:42.906Z,3.61
2023-02-17T05:31:10.077Z,3.60
2023-02-17T05:33:38.961Z,3.60
2023-02-17T05:36:08.573Z,3.61
2023-02-17T05:38:35.563Z,3.61
2023-02-17T05:41:02.299Z,3.62
2023-02-17T05:43:29.182Z,3.62
2023-02-17T05:45:55.697Z,3.63
2023-02-17T05:48:24.882Z,3.65
2023-02-17T05:50:54.093Z,3.65
2023-02-17T05:53:20.687Z,3.66
2023-02-17T05:55:48.807Z,3.67
2023-02-17T05:58:15.905Z,3.69
2023-02-17T06:00:42.925Z,3.70
2023-02-17T06:09:56.418Z,3.76
2023-02-17T06:12:44.987Z,3.77
2023-02-17T06:15:12.064Z,3.78
2023-02-17T06:17:41.275Z,3.79
2023-02-17T06:20:08.966Z,3.81
2023-02-17T06:22:35.961Z,3.82
2023-02-17T06:59:52.317Z,4.11
2023-02-17T07:02:25.810Z,4.13
2023-02-17T07:04:52.479Z,4.15
2023-02-17T07:07:20.233Z,4.17
2023-02-17T07:09:50.095Z,4.19
2023-02-17T07:12:16.949Z,4.17
2023-02-17T07:14:46.380Z,4.17
2023-02-17T07:17:13.065Z,4.16
2023-02-17T07:19:40.983Z,4.15
2023-02-17T07:22:07.756Z,4.17
2023-02-17T07:24:38.189Z,4.18
2023-02-17T07:27:10.562Z,4.18
2023-02-17T07:29:38.174Z,4.19
2023-02-17T07:32:05.145Z,4.19
2023-02-17T07:34:31.662Z,4.20
2023-02-17T07:37:01.822Z,4.21
2023-02-17T07:39:30.918Z,4.22
2023-02-17T07:42:00.350Z,4.21
2023-02-17T07:44:27.985Z,4.22
2023-02-17T07:46:55.002Z,4.23
2023-02-17T07:49:21.840Z,4.23
2023-02-17T07:51:48.487Z,4.24
2023-02-17T07:54:15.266Z,4.26
2023-02-17T07:56:42.112Z,4.29
2023-02-17T07:59:09.846Z,4.30
2023-02-17T08:01:37.189Z,4.32
2023-02-17T08:04:06.395Z,4.34
2023-02-17T08:06:33.112Z,4.36
2023-02-17T08:09:18.503Z,4.38
2023-02-17T08:12:04.072Z,4.39
2023-02-17T08:14:33.882Z,4.41
2023-02-17T08:17:01.336Z,4.43
2023-02-17T08:19:42.776Z,4.44
2023-02-17T08:22:13.142Z,4.47
2023-02-17T08:24:39.903Z,4.49
2023-02-17T08:27:06.681Z,4.52
2023-02-17T08:29:33.331Z,4.54
2023-02-17T08:32:00.053Z,4.57
2023-02-17T08:34:37.913Z,4.58
2023-02-17T08:37:05.894Z,4.60
2023-02-17T08:39:33.969Z,4.63
2023-02-17T08:42:05.745Z,4.66
2023-02-17T08:44:41.054Z,4.67
2023-02-17T08:47:09.951Z,4.68
2023-02-17T08:49:39.737Z,4.70
2023-02-17T08:52:06.601Z,4.70
2023-02-17T08:54:33.383Z,4.71
2023-02-17T08:57:02.798Z,4.73
2023-02-17T08:59:29.878Z,4.75
2023-02-17T09:02:41.918Z,4.77
2023-02-17T09:07:03.776Z,4.80
2023-02-17T09:10:16.558Z,4.79
2023-02-17T09:12:45.985Z,4.79
2023-02-17T09:15:12.772Z,4.80
2023-02-17T09:17:45.090Z,4.80
2023-02-17T09:20:23.806Z,4.82
2023-02-17T09:22:52.561Z,4.83
2023-02-17T09:25:19.445Z,4.84
2023-02-17T09:27:49.657Z,4.85
2023-02-17T09:30:16.742Z,4.86
2023-02-17T09:32:51.543Z,4.86
2023-02-17T09:35:21.231Z,4.86
2023-02-17T09:37:48.334Z,4.87
2023-02-17T09:40:21.896Z,4.86
2023-02-17T09:42:48.974Z,4.87
2023-02-17T09:45:27.074Z,4.88
2023-02-17T09:47:59.019Z,4.90
2023-02-17T09:50:59.394Z,4.92
2023-02-17T09:53:34.773Z,4.94
2023-02-17T09:56:04.652Z,4.96
2023-02-17T09:58:38.630Z,4.97
2023-02-17T10:01:18.992Z,4.97
2023-02-17T10:03:56.691Z,4.99
2023-02-17T10:06:35.565Z,5.00
2023-02-17T10:09:12.947Z,5.02
2023-02-17T10:12:13.315Z,5.04
2023-02-17T10:14:45.536Z,5.06
2023-02-17T10:17:33.978Z,5.08
2023-02-17T10:20:08.701Z,5.11
2023-02-17T10:22:35.308Z,5.13
2023-02-17T10:25:12.839Z,5.16
2023-02-17T10:27:53.447Z,5.20
2023-02-17T10:30:35.279Z,5.22
2023-02-17T10:33:31.327Z,5.24
2023-02-17T10:36:40.574Z,5.26
2023-02-17T12:48:01.477Z,5.96
2023-02-17T13:37:21.066Z,6.05
2023-02-17T13:39:51.406Z,6.13
2023-02-17T13:42:35.744Z,6.13
2023-02-17T13:45:21.719Z,6.12
2023-02-17T13:47:50.919Z,6.12
2023-02-17T13:50:32.935Z,6.12
2023-02-17T13:53:02.154Z,6.14
2023-02-17T13:55:30.592Z,6.14
2023-02-17T13:57:59.261Z,6.14
2023-02-17T14:00:46.779Z,6.16
2023-02-17T14:03:42.730Z,6.15
2023-02-17T14:06:21.266Z,6.17
2023-02-17T14:08:48.311Z,6.19
2023-02-17T14:11:20.879Z,6.19
2023-02-17T14:14:05.628Z,6.20
2023-02-17T14:16:47.830Z,6.21
2023-02-17T14:20:04.930Z,6.21
2023-02-17T14:22:42.720Z,6.21
2023-02-17T14:50:59.670Z,6.36
2023-02-17T15:12:18.246Z,6.38
2023-02-17T15:36:16.789Z,6.44
2023-02-17T15:38:43.576Z,6.44
2023-02-17T15:44:25.447Z,6.47
2023-02-17T15:46:55.490Z,6.55
2023-02-17T15:49:34.824Z,6.58
2023-02-17T15:52:01.850Z,6.61
2023-02-17T15:54:32.500Z,6.67
2023-02-17T15:57:03.280Z,6.65
2023-02-17T15:59:30.110Z,6.65
2023-02-17T16:02:00.545Z,6.65
2023-02-17T16:04:28.396Z,6.66
2023-02-17T16:06:55.276Z,6.66
2023-02-17T16:09:22.794Z,6.66
2023-02-17T16:11:52.481Z,6.67
2023-02-17T16:14:33.259Z,6.68
2023-02-17T16:17:00.448Z,6.67
2023-02-17T16:19:27.802Z,6.68
2023-02-17T16:21:56.794Z,6.68
2023-02-17T16:24:23.449Z,6.69
2023-02-17T16:26:57.039Z,6.71
2023-02-17T16:29:24.695Z,6.71
2023-02-17T16:31:51.950Z,6.71
2023-02-17T16:34:22.471Z,6.73
2023-02-17T16:36:56.322Z,6.72
2023-02-17T16:39:23.231Z,6.71
2023-02-17T16:41:50.253Z,6.72
2023-02-17T16:44:18.960Z,6.73
2023-02-17T16:46:49.076Z,6.74
2023-02-17T16:49:31.920Z,6.75
2023-02-17T16:52:19.418Z,6.74
2023-02-17T16:54:46.256Z,6.76
2023-02-17T16:57:18.484Z,6.75
2023-02-17T16:59:48.748Z,6.77
2023-02-17T17:02:18.742Z,6.79
2023-02-17T17:04:49.023Z,6.79
2023-02-17T17:07:16.261Z,6.80
2023-02-17T17:10:14.707Z,6.82
2023-02-17T17:12:35.625Z,6.84
2023-02-17T17:15:05.443Z,6.87
2023-02-17T17:17:39.241Z,6.89
2023-02-17T17:20:06.905Z,6.90
2023-02-17T17:22:37.127Z,6.91
2023-02-17T17:25:04.119Z,6.93
2023-02-17T17:27:30.884Z,7.00
2023-02-17T17:29:59.826Z,7.03
2023-02-17T17:32:26.727Z,7.04
2023-02-17T17:34:55.743Z,7.05
2023-02-17T17:37:22.773Z,7.06
2023-02-17T17:39:49.598Z,7.06
2023-02-17T17:42:19.426Z,7.09
2023-02-17T17:44:48.592Z,7.10
2023-02-17T17:47:28.129Z,7.11
2023-02-17T17:49:58.606Z,7.11
2023-02-17T17:52:37.776Z,7.15
2023-02-17T17:55:04.604Z,7.16
2023-02-17T17:57:31.857Z,7.16
2023-02-17T17:59:58.822Z,7.17
2023-02-17T18:02:27.946Z,7.18
2023-02-17T18:04:57.404Z,7.19
2023-02-17T18:07:26.621Z,7.21
2023-02-17T18:09:53.327Z,7.20
2023-02-17T18:12:23.585Z,7.20
2023-02-17T18:14:53.747Z,7.20
2023-02-17T18:17:22.442Z,7.21
2023-02-17T18:19:54.307Z,7.23
2023-02-17T18:22:21.638Z,7.27
2023-02-17T18:24:48.870Z,7.30
2023-02-17T18:27:15.636Z,7.32
2023-02-17T18:29:47.433Z,7.34
2023-02-17T18:32:14.423Z,7.37
2023-02-17T18:34:42.418Z,7.41
2023-02-17T18:37:11.463Z,7.45
2023-02-17T18:39:38.733Z,7.48
2023-02-17T18:42:06.068Z,7.49
2023-02-17T18:44:32.813Z,7.52
2023-02-17T18:46:59.565Z,7.54
2023-02-17T18:49:28.560Z,7.60
2023-02-17T18:51:59.691Z,7.63
2023-02-17T18:54:26.052Z,7.66
2023-02-17T18:56:52.897Z,7.72
2023-02-17T18:59:19.582Z,7.78
2023-02-17T19:01:46.324Z,7.83
2023-02-17T19:04:14.345Z,7.86
2023-02-17T19:06:41.474Z,7.89
2023-02-17T19:09:07.941Z,7.94
2023-02-17T19:11:34.692Z,7.98
2023-02-17T19:14:01.829Z,8.01
2023-02-17T19:16:30.333Z,8.06
2023-02-17T19:18:58.072Z,8.10
2023-02-17T19:21:27.694Z,8.13
2023-02-17T19:23:54.581Z,8.14
2023-02-17T19:26:21.603Z,8.16
2023-02-17T19:28:48.581Z,8.20
2023-02-17T19:31:18.854Z,8.23
2023-02-17T19:33:48.281Z,8.25
2023-02-17T19:36:18.283Z,8.27
2023-02-17T19:38:46.013Z,8.28
2023-02-17T19:41:14.069Z,8.32
2023-02-17T19:43:41.999Z,8.33
2023-02-17T19:46:13.415Z,8.34
2023-02-17T19:48:50.926Z,8.36
2023-02-17T19:51:18.852Z,8.38
2023-02-17T19:53:45.718Z,8.39
2023-02-17T19:56:16.566Z,8.42
2023-02-17T19:58:45.121Z,8.41
2023-02-17T20:01:25.671Z,8.43
2023-02-17T20:03:56.129Z,8.43
2023-02-17T20:06:31.828Z,8.44
2023-02-17T20:09:01.280Z,8.43
2023-02-17T20:11:28.684Z,8.43
2023-02-17T20:13:57.685Z,8.44
2023-02-17T20:16:25.182Z,8.45
2023-02-17T20:18:52.252Z,8.46
2023-02-17T20:21:21.684Z,8.48
2023-02-17T20:23:49.028Z,8.49
2023-02-17T20:26:23.725Z,8.49
2023-02-17T20:28:52.364Z,8.48
2023-02-17T20:31:19.461Z,8.49
2023-02-17T20:33:46.811Z,8.48
2023-02-17T20:36:14.033Z,8.47
2023-02-17T20:38:41.261Z,8.48
2023-02-17T20:41:17.177Z,8.51
2023-02-17T20:43:47.119Z,8.54
2023-02-17T20:46:28.177Z,8.55
2023-02-17T20:48:55.962Z,8.60
2023-02-17T20:51:23.236Z,8.60
2023-02-17T20:53:51.086Z,8.63
2023-02-17T20:56:20.531Z,8.67
2023-02-17T20:58:48.385Z,8.71
2023-02-17T21:01:16.940Z,8.74
2023-02-17T21:03:43.695Z,8.78
2023-02-17T21:06:20.368Z,8.79
2023-02-17T21:08:50.434Z,8.80
2023-02-17T21:11:19.985Z,8.83
2023-02-17T21:13:46.617Z,8.84
2023-02-17T21:16:15.375Z,8.88
2023-02-17T21:18:46.052Z,8.91
2023-02-17T21:21:14.289Z,8.92
2023-02-17T21:23:42.168Z,8.93
2023-02-17T21:26:10.664Z,8.93
2023-02-17T21:28:38.320Z,8.92
2023-02-17T21:31:10.846Z,8.95
2023-02-17T21:33:41.338Z,8.96
2023-02-17T21:36:14.636Z,8.99
2023-02-17T21:38:44.783Z,9.03
2023-02-17T21:41:18.465Z,9.05
2023-02-17T21:44:04.358Z,9.09
2023-02-17T21:46:31.938Z,9.13
2023-02-17T21:49:00.448Z,9.18
2023-02-17T21:51:27.390Z,9.16
2023-02-17T21:53:54.302Z,9.16
2023-02-17T21:56:23.160Z,9.19
2023-02-17T21:58:54.523Z,9.24
2023-02-17T22:01:25.797Z,9.25
2023-02-17T22:03:53.232Z,9.20
2023-02-17T22:06:25.839Z,9.15
2023-02-17T22:08:53.559Z,9.14
2023-02-17T22:11:23.092Z,9.09
2023-02-17T22:13:54.152Z,9.04
2023-02-17T22:16:20.895Z,9.00
2023-02-17T22:18:47.616Z,8.96
2023-02-17T22:21:14.823Z,8.91
2023-02-17T22:23:42.226Z,8.87
2023-02-17T22:26:12.011Z,8.81
2023-02-17T22:28:39.112Z,8.82
2023-02-17T22:31:08.302Z,8.81
2023-02-17T22:33:39.390Z,8.72
2023-02-17T22:36:09.650Z,8.66
2023-02-17T22:38:39.138Z,8.62
2023-02-17T22:41:12.029Z,8.59
2023-02-17T22:43:40.634Z,8.52
2023-02-17T22:46:09.262Z,8.45
2023-02-17T22:48:38.087Z,8.43
2023-02-17T22:51:10.949Z,8.36
2023-02-17T22:53:38.631Z,8.31
2023-02-17T22:56:08.519Z,8.28
2023-02-17T22:58:36.107Z,8.23
2023-02-17T23:01:07.698Z,8.22
2023-02-17T23:03:35.256Z,8.22
2023-02-17T23:06:05.531Z,8.23
